Terminal Aerodrome Forecast
Issued by NWS Duluth, MN

Home | Current Version | Previous Version | Text Only | Print | Product List | Glossary On
Versions: 1 2 3 4 5 6 7 8 9 10 11 12 13 14 15 16 17 18 19 20 21 22 23
000
FTUS43 KDLH 181100
TAFINL
TAF
KINL 181134Z 1812/1912 VRB02KT P6SM SKC
     FM181900 11008KT P6SM BKN100
     FM190500 12012KT 5SM -FZRASN OVC030
     FM190900 12013KT 5SM -FZRA OVC020 WS015/16045KT=

USA.gov is the U.S. government's official web portal to all federal, state and local government web resources and services.